Time;durP1;ratioP1;P1;durP2;ratioP2;P2;SDS_P1;SDS_P2;PMS_P1;PMS_P2;Temp;Humidity;BMP_temperature;BMP_pressure;BME280_temperature;BME280_humidity;BME280_pressure;Samples;Min_cycle;Max_cycle;Signal;HPM_P1;HPM_P2
2023/11/09 08:40:53;;;;;;;31.27;12.75;;;;;;;10.54;68.21;98769.13;6301205;22;20061;-88
2023/11/09 08:44:25;;;;;;;37.53;12.82;;;;;;;11.01;67.42;98826.53;6228695;22;20071;-89
2023/11/09 08:47:00;;;;;;;37.88;13.50;;;;;;;10.38;67.98;98749.72;6305985;22;20019;-89
2023/11/09 08:52:27;;;;;;;37.60;14.03;;;;;;;10.68;67.87;98766.19;6309593;22;20038;-88
2023/11/09 08:55:16;;;;;;;29.90;12.75;;;;;;;10.85;67.63;98781.72;6279019;22;20019;-88
2023/11/09 09:06:30;;;;;;;52.00;16.27;;;;;;;11.03;66.67;98788.75;6282143;22;20031;-87
2023/11/09 09:09:04;;;;;;;48.30;16.55;;;;;;;10.93;66.46;98778.97;6276875;22;20053;-88
2023/11/09 09:11:45;;;;;;;34.08;15.38;;;;;;;11.11;65.92;98822.66;6228677;22;20030;-88
2023/11/09 09:14:14;;;;;;;39.03;14.98;;;;;;;10.88;66.68;98770.13;6246485;22;19996;-88
2023/11/09 09:17:12;;;;;;;42.42;15.70;;;;;;;11.19;66.57;98786.22;6295734;22;20020;-88
2023/11/09 09:19:41;;;;;;;40.30;15.45;;;;;;;11.40;66.18;98808.97;6275867;22;19999;-88
2023/11/09 09:22:13;;;;;;;50.45;16.52;;;;;;;11.35;65.35;98798.22;6272825;22;20020;-88
2023/11/09 09:25:22;;;;;;;52.53;16.67;;;;;;;11.53;65.70;98824.34;6298085;22;20020;-88
2023/11/09 09:27:52;;;;;;;51.30;16.42;;;;;;;11.29;64.68;98796.78;6300358;22;20031;-88
2023/11/09 09:30:52;;;;;;;54.75;16.92;;;;;;;11.38;65.66;98824.91;6275796;22;20006;-87
2023/11/09 09:33:19;;;;;;;43.00;15.43;;;;;;;11.15;65.12;98793.50;6154764;23;20061;-89
2023/11/09 09:36:10;;;;;;;39.78;15.18;;;;;;;10.98;65.50;98797.91;6026228;23;20087;-90
2023/11/09 09:39:29;;;;;;;42.40;16.42;;;;;;;11.03;65.85;98811.41;6143842;23;20068;-89
2023/11/09 09:50:44;;;;;;;22.00;12.98;;;;;;;10.61;66.00;98755.75;6302655;22;20046;-86
2023/11/09 10:12:48;;;;;;;35.58;13.35;;;;;;;10.64;65.94;98759.78;6326764;22;20019;-88
2023/11/09 10:15:26;;;;;;;87.05;16.27;;;;;;;10.57;66.21;98732.94;6095795;23;20074;-87
2023/11/09 10:30:07;;;;;;;27.10;12.18;;;;;;;10.93;66.30;98813.72;6333104;22;19999;-86
2023/11/09 10:32:36;;;;;;;26.92;12.30;;;;;;;10.86;66.22;98795.09;6309372;22;19999;-90
2023/11/09 10:35:49;;;;;;;25.27;12.95;;;;;;;10.79;66.01;98770.16;6334607;22;20026;-90
2023/11/09 10:38:57;;;;;;;42.60;13.23;;;;;;;11.03;65.52;98803.22;6333306;22;20026;-88
2023/11/09 10:42:12;;;;;;;27.27;11.60;;;;;;;11.00;65.54;98825.75;6291747;22;20007;-87
2023/11/09 10:46:02;;;;;;;25.38;10.20;;;;;;;10.64;64.99;98798.84;6334455;22;20037;-89
2023/11/09 10:48:58;;;;;;;21.20;10.48;;;;;;;10.82;65.54;98819.50;6306739;22;20035;-88
2023/11/09 10:51:41;;;;;;;30.80;10.32;;;;;;;10.70;64.96;98789.34;6285771;22;20045;-88
2023/11/09 10:54:44;;;;;;;22.67;9.90;;;;;;;10.91;64.84;98822.22;6233889;22;20030;-90
2023/11/09 10:58:40;;;;;;;30.40;10.10;;;;;;;10.84;64.89;98824.66;6240070;23;20035;-88
2023/11/09 11:02:27;;;;;;;15.23;8.27;;;;;;;10.86;64.75;98830.63;6192522;23;20008;-88
2023/11/09 11:06:01;;;;;;;22.40;8.57;;;;;;;10.94;64.13;98827.03;6311838;22;20007;-90
2023/11/09 11:11:36;;;;;;;19.65;7.78;;;;;;;10.34;63.10;98756.97;6327199;22;20023;-89
2023/11/09 11:15:37;;;;;;;25.35;8.02;;;;;;;10.91;63.25;98830.44;6320512;22;20018;-90
2023/11/09 11:19:06;;;;;;;13.85;7.50;;;;;;;10.80;63.47;98813.59;6268389;22;20020;-92
2023/11/09 11:22:11;;;;;;;17.20;6.85;;;;;;;10.42;62.84;98766.25;6242411;23;20020;-92
2023/11/09 11:26:10;;;;;;;30.23;8.00;;;;;;;10.39;62.80;98759.50;6240287;23;20198;-90
2023/11/09 12:03:10;;;;;;;23.50;8.50;;;;;;;10.04;65.27;98799.72;6325616;22;20027;-93
2023/11/09 12:06:32;;;;;;;24.48;8.32;;;;;;;10.30;65.48;98868.03;6306544;22;20019;-92
2023/11/09 12:09:42;;;;;;;21.08;8.27;;;;;;;9.67;65.79;98776.56;6138200;23;20031;-92
2023/11/09 12:30:49;;;;;;;29.17;10.40;;;;;;;10.15;67.08;98872.00;6301072;22;20008;-92
2023/11/09 12:34:17;;;;;;;23.15;8.73;;;;;;;10.15;66.99;98868.47;6202474;22;20114;-90
2023/11/09 12:37:36;;;;;;;17.90;9.60;;;;;;;10.04;67.21;98868.78;6275997;22;20027;-90
2023/11/09 12:40:40;;;;;;;28.83;8.85;;;;;;;9.48;66.99;98794.03;6259530;22;20031;-93
2023/11/09 12:43:46;;;;;;;26.00;9.05;;;;;;;9.90;67.08;98859.94;6254127;22;20030;-93
2023/11/09 12:59:14;;;;;;;32.55;10.18;;;;;;;9.60;68.08;98853.44;6317820;22;20042;-92
2023/11/09 13:02:42;;;;;;;35.55;9.98;;;;;;;9.28;67.62;98816.47;6279998;22;20019;-91
2023/11/09 14:18:39;;;;;;;21.27;6.22;;;;;;;9.31;67.19;98908.56;6295218;22;20015;-89
2023/11/09 14:37:22;;;;;;;12.95;5.22;;;;;;;9.02;66.23;98879.88;6328357;22;20003;-90
2023/11/09 14:56:42;;;;;;;18.08;4.55;;;;;;;8.98;66.09;98894.47;6228769;22;20044;-89
2023/11/09 14:59:24;;;;;;;12.68;4.72;;;;;;;8.93;66.19;98879.81;6218313;22;20012;-91
2023/11/09 15:02:21;;;;;;;14.82;4.22;;;;;;;8.94;66.10;98884.19;6238225;22;20053;-89
2023/11/09 15:17:48;;;;;;;15.35;4.20;;;;;;;8.81;66.72;98887.00;6300894;22;20039;-89
2023/11/09 15:20:27;;;;;;;9.90;4.30;;;;;;;8.77;66.98;98910.50;6177502;23;20025;-90
2023/11/09 15:35:28;;;;;;;14.65;6.65;;;;;;;8.79;67.52;98921.91;6211679;23;20040;-91
2023/11/09 15:59:54;;;;;;;11.93;4.72;;;;;;;8.92;67.47;98984.53;6267126;22;20019;-90
2023/11/09 16:02:56;;;;;;;31.10;5.65;;;;;;;8.77;67.76;98954.91;6220828;23;20030;-90
2023/11/09 16:06:09;;;;;;;17.13;5.40;;;;;;;9.01;67.68;99002.88;6267596;23;19999;-90
2023/11/09 16:08:40;;;;;;;12.23;5.13;;;;;;;8.92;68.25;99011.00;6212461;23;20012;-88
2023/11/09 16:11:09;;;;;;;23.73;5.82;;;;;;;8.91;68.33;99023.03;6192689;23;20034;-89
2023/11/09 16:14:09;;;;;;;12.02;5.43;;;;;;;8.96;68.48;99020.16;6218865;23;20389;-89
2023/11/09 16:16:46;;;;;;;8.10;5.57;;;;;;;8.51;68.64;98972.97;6190202;23;20324;-90
2023/11/09 16:19:52;;;;;;;12.10;5.35;;;;;;;8.43;69.09;98967.16;6242610;23;20022;-88
2023/11/09 16:22:21;;;;;;;10.10;5.82;;;;;;;8.88;68.97;99034.53;6215290;23;20047;-90
2023/11/09 16:25:17;;;;;;;12.20;5.90;;;;;;;8.56;68.72;98975.59;6195126;23;20012;-90
2023/11/09 16:31:03;;;;;;;15.68;6.22;;;;;;;8.35;69.68;98976.03;6268904;22;20020;-90
2023/11/09 16:33:33;;;;;;;12.45;6.15;;;;;;;8.23;69.54;98973.03;6241855;23;20016;-89
2023/11/09 16:36:28;;;;;;;13.23;6.30;;;;;;;8.66;69.73;99036.09;6219632;23;20000;-91
2023/11/09 16:39:16;;;;;;;14.77;6.65;;;;;;;8.46;69.41;99028.38;6217299;23;20060;-89
2023/11/09 16:42:12;;;;;;;12.52;6.43;;;;;;;8.27;69.53;98995.00;6240006;22;20032;-88
2023/11/09 16:44:56;;;;;;;14.48;6.50;;;;;;;8.75;69.31;99047.09;6267039;22;20042;-89
2023/11/09 16:47:27;;;;;;;12.25;6.47;;;;;;;8.19;68.57;98967.38;6193761;23;20043;-91
2023/11/09 16:50:08;;;;;;;11.27;5.95;;;;;;;8.21;68.45;98972.50;6268762;23;20016;-89
2023/11/09 16:52:39;;;;;;;10.77;6.13;;;;;;;8.40;68.41;98986.03;6169712;23;20027;-89
2023/11/09 16:55:40;;;;;;;11.63;5.80;;;;;;;8.21;68.29;98951.56;6268149;23;20071;-90
2023/11/09 16:58:26;;;;;;;22.83;7.93;;;;;;;8.50;68.17;98999.41;6216677;23;20071;-89
2023/11/09 17:00:56;;;;;;;10.77;6.40;;;;;;;8.66;68.09;99010.78;6213138;23;20024;-89
2023/11/09 17:03:24;;;;;;;13.48;6.10;;;;;;;8.76;67.92;99029.63;6214009;23;20103;-91
2023/11/09 17:05:59;;;;;;;13.18;6.10;;;;;;;8.90;68.05;99057.63;6211947;23;20020;-86
2023/11/09 17:08:42;;;;;;;20.02;6.95;;;;;;;8.47;68.64;99016.38;6237266;23;20024;-86
2023/11/09 17:11:22;;;;;;;12.15;6.93;;;;;;;8.39;69.01;98998.03;6236187;23;20020;-85
2023/11/09 17:13:49;;;;;;;14.95;7.15;;;;;;;8.67;68.84;99045.88;6208451;23;20016;-85
2023/11/09 17:16:23;;;;;;;17.98;6.97;;;;;;;8.62;69.38;99056.09;6213958;23;20020;-88
2023/11/09 17:18:58;;;;;;;24.02;7.32;;;;;;;8.52;69.52;99040.00;6266065;23;20575;-88
2023/11/09 17:21:37;;;;;;;22.80;7.88;;;;;;;8.44;69.53;99036.03;6236835;23;20032;-85
2023/11/09 17:24:05;;;;;;;17.13;7.13;;;;;;;8.38;69.73;99024.47;6231363;23;20015;-84
2023/11/09 17:26:44;;;;;;;22.65;6.88;;;;;;;8.21;69.30;99002.47;6260824;23;20048;-84
2023/11/09 17:29:31;;;;;;;20.23;6.35;;;;;;;8.44;69.06;99060.56;6211068;23;20083;-86
2023/11/09 17:32:27;;;;;;;12.55;6.50;;;;;;;8.24;70.03;99065.31;6226027;23;20020;-86
2023/11/09 17:34:54;;;;;;;;;;;;;;;8.24;69.95;99070.75;6221439;23;20537;-85
2023/11/09 17:37:30;;;;;;;14.70;5.13;;;;;;;7.95;70.11;99040.31;6233400;23;19969;-86
2023/11/09 17:40:03;;;;;;;19.60;6.05;;;;;;;7.98;70.20;99037.78;6211380;23;20103;-85
2023/11/09 17:42:31;;;;;;;7.60;5.47;;;;;;;8.04;69.80;99035.75;6258934;23;20050;-85
2023/11/09 17:44:59;;;;;;;11.60;4.63;;;;;;;7.90;69.25;99018.63;6184132;23;20066;-86
2023/11/09 17:47:25;;;;;;;10.13;4.73;;;;;;;8.04;69.00;99021.34;6263770;23;20020;-87
2023/11/09 17:49:52;;;;;;;7.68;4.45;;;;;;;8.02;68.21;99037.19;6204293;23;20020;-84
2023/11/09 17:52:19;;;;;;;14.10;4.65;;;;;;;8.10;68.54;99080.03;6254401;23;20079;-85
2023/11/09 17:54:52;;;;;;;10.98;4.78;;;;;;;7.62;69.10;99020.53;6205962;23;20020;-86
2023/11/09 17:57:29;;;;;;;6.10;4.35;;;;;;;7.52;68.93;99030.50;6231210;23;20456;-87
2023/11/09 18:00:16;;;;;;;7.40;4.53;;;;;;;7.78;69.04;99081.69;6252290;23;20016;-87
2023/11/09 18:02:45;;;;;;;5.97;4.18;;;;;;;7.63;69.35;99066.47;6207414;23;20023;-86
2023/11/09 18:05:11;;;;;;;7.32;4.82;;;;;;;7.74;69.45;99080.69;6185556;23;20142;-86
2023/11/09 18:07:39;;;;;;;13.48;4.65;;;;;;;7.64;69.18;99057.19;6233947;23;20020;-85
2023/11/09 18:10:08;;;;;;;10.27;5.00;;;;;;;7.79;69.18;99080.63;6200668;23;20011;-84
2023/11/09 18:12:56;;;;;;;17.25;4.70;;;;;;;7.92;69.41;99101.59;6228829;23;20262;-89
2023/11/09 18:15:23;;;;;;;8.60;5.47;;;;;;;7.93;69.07;99110.56;6209700;23;20003;-88
2023/11/09 18:17:51;;;;;;;6.88;4.80;;;;;;;7.82;69.46;99085.44;6258461;23;20354;-84
2023/11/09 18:20:19;;;;;;;19.05;4.82;;;;;;;7.70;69.38;99045.13;6206100;23;20032;-87
2023/11/09 18:22:46;;;;;;;10.25;5.22;;;;;;;7.84;69.02;99069.63;6212210;23;20450;-87
2023/11/09 18:25:13;;;;;;;;;;;;;;;8.14;68.71;99110.97;6216951;23;20024;-85
2023/11/09 18:28:02;;;;;;;10.05;4.70;;;;;;;7.90;68.90;99073.06;6265041;23;19935;-85
2023/11/09 18:30:29;;;;;;;15.30;5.68;;;;;;;7.95;68.72;99078.41;6236924;23;20031;-86
2023/11/09 18:32:58;;;;;;;11.32;5.07;;;;;;;8.07;68.64;99107.84;6239364;22;20067;-85
2023/11/09 18:35:27;;;;;;;6.68;4.75;;;;;;;8.01;68.66;99115.28;6264150;23;20023;-85
2023/11/09 18:38:13;;;;;;;11.07;5.07;;;;;;;8.14;68.66;99128.13;6241103;23;20031;-85
2023/11/09 18:40:45;;;;;;;8.95;4.85;;;;;;;8.05;68.82;99096.47;6241226;23;20095;-85
2023/11/09 18:43:15;;;;;;;11.90;4.57;;;;;;;7.89;68.11;99071.44;6188941;23;20020;-84
2023/11/09 18:45:44;;;;;;;6.30;4.50;;;;;;;8.13;68.47;99131.94;6231295;23;20015;-84
2023/11/09 18:48:12;;;;;;;9.60;4.28;;;;;;;7.90;68.77;99111.16;6208835;23;20022;-85
2023/11/09 18:56:38;;;;;;;17.58;4.65;;;;;;;7.66;69.59;99071.31;6262741;22;20027;-87
2023/11/09 18:59:26;;;;;;;8.00;4.68;;;;;;;7.84;69.36;99101.47;6214922;23;19997;-86
2023/11/09 19:02:35;;;;;;;7.53;4.40;;;;;;;7.51;69.47;99066.13;6113248;23;20025;-87
2023/11/09 19:05:04;;;;;;;15.57;4.95;;;;;;;7.92;69.63;99133.44;6114426;23;20022;-87
2023/11/09 19:08:43;;;;;;;8.75;4.65;;;;;;;7.70;69.84;99107.69;6106495;23;20034;-88
2023/11/09 19:11:25;;;;;;;11.82;4.82;;;;;;;7.63;69.57;99093.69;6109624;23;20073;-89
2023/11/09 19:14:10;;;;;;;12.30;5.00;;;;;;;7.41;69.78;99064.41;6114919;23;20025;-86
2023/11/09 19:20:55;;;;;;;8.70;5.22;;;;;;;7.63;70.26;99112.72;6111957;23;20019;-87
2023/11/09 19:23:44;;;;;;;8.68;4.68;;;;;;;7.97;70.24;99134.16;6110255;23;20018;-88
2023/11/09 19:26:45;;;;;;;10.52;5.15;;;;;;;7.96;69.68;99134.47;6117311;23;20042;-89
2023/11/09 19:29:47;;;;;;;10.15;5.10;;;;;;;7.98;70.18;99133.06;6030968;23;20067;-86
2023/11/09 19:33:29;;;;;;;8.63;5.63;;;;;;;7.74;69.92;99102.47;5978525;23;20024;-89
2023/11/09 19:36:21;;;;;;;8.85;5.97;;;;;;;7.76;70.04;99100.25;6004524;23;20041;-88
2023/11/09 19:38:54;;;;;;;12.82;5.30;;;;;;;7.77;69.60;99075.44;6054350;23;20049;-86
2023/11/09 19:42:25;;;;;;;16.83;6.13;;;;;;;8.29;69.16;99148.00;6122448;23;20049;-90
2023/11/09 19:44:52;;;;;;;9.82;5.47;;;;;;;7.94;68.73;99093.91;6115168;23;20048;-87
2023/11/09 19:47:19;;;;;;;9.87;6.00;;;;;;;8.16;68.83;99139.53;6136443;23;20356;-88
2023/11/09 19:49:57;;;;;;;11.65;5.78;;;;;;;7.92;69.30;99126.09;6062546;23;20029;-87
2023/11/09 19:52:24;;;;;;;10.98;6.50;;;;;;;7.82;69.76;99117.31;6091540;23;20005;-86
2023/11/09 19:55:06;;;;;;;13.60;6.50;;;;;;;7.89;69.92;99134.84;6143059;23;20080;-86
2023/11/09 19:57:46;;;;;;;19.98;6.50;;;;;;;7.83;69.49;99099.88;6117621;23;20029;-89
2023/11/09 20:00:14;;;;;;;9.30;6.05;;;;;;;7.71;69.66;99094.88;6140625;23;20017;-86
2023/11/09 20:02:53;;;;;;;12.73;5.88;;;;;;;7.70;69.43;99088.66;6203498;23;20025;-92
2023/11/09 20:17:16;;;;;;;6.85;5.55;;;;;;;7.49;69.23;99098.28;6306389;22;20548;-89
2023/11/09 20:29:08;;;;;;;11.60;5.97;;;;;;;7.77;70.40;99173.41;6318404;22;20023;-90
2023/11/09 20:52:47;;;;;;;7.50;5.15;;;;;;;7.82;70.65;99193.50;6233231;23;20030;-91
2023/11/09 20:55:39;;;;;;;7.82;5.32;;;;;;;7.91;70.65;99181.63;6230149;22;20020;-90
2023/11/09 21:05:49;;;;;;;11.57;5.47;;;;;;;8.06;69.90;99198.81;6303778;22;21710;-89
2023/11/09 21:08:17;;;;;;;8.00;5.47;;;;;;;7.60;70.25;99147.88;6215664;22;20050;-90
2023/11/09 21:15:19;;;;;;;8.77;4.88;;;;;;;8.04;69.65;99211.91;6173712;23;20021;-88
2023/11/09 21:18:13;;;;;;;7.30;4.70;;;;;;;7.83;70.11;99214.16;6155016;23;20005;-89
2023/11/09 21:21:09;;;;;;;11.05;4.82;;;;;;;7.23;70.48;99134.03;6266629;22;20035;-89
2023/11/09 21:23:38;;;;;;;8.50;4.32;;;;;;;7.34;70.76;99153.69;6267716;22;20050;-89
2023/11/09 21:26:21;;;;;;;18.13;4.55;;;;;;;7.82;70.30;99213.34;6242021;22;20185;-89
2023/11/09 21:29:25;;;;;;;9.65;4.25;;;;;;;7.92;69.74;99226.78;6265299;22;20045;-91
2023/11/09 21:31:56;;;;;;;7.45;4.05;;;;;;;7.21;69.71;99138.13;6204312;23;20043;-88
2023/11/09 21:34:22;;;;;;;7.65;4.38;;;;;;;7.44;69.98;99174.50;6119975;23;20021;-89
2023/11/09 21:36:52;;;;;;;5.40;4.00;;;;;;;7.18;69.68;99160.47;6172689;23;20045;-88
2023/11/09 21:42:49;;;;;;;11.73;4.68;;;;;;;7.45;70.38;99223.19;6253973;23;20024;-87
2023/11/09 21:45:18;;;;;;;7.72;4.45;;;;;;;7.42;70.04;99215.59;6230418;23;20122;-89
2023/11/09 21:47:46;;;;;;;8.38;4.13;;;;;;;7.41;69.90;99192.22;6206551;23;20016;-88
2023/11/09 21:50:13;;;;;;;10.32;4.75;;;;;;;7.35;69.82;99195.28;6212860;23;20027;-88
2023/11/09 21:52:52;;;;;;;8.90;4.88;;;;;;;7.42;70.07;99231.13;6249261;22;20023;-89
2023/11/09 21:55:22;;;;;;;11.90;4.78;;;;;;;7.64;70.52;99253.06;6296624;22;20041;-88
2023/11/09 21:58:28;;;;;;;7.93;4.30;;;;;;;7.40;69.77;99193.31;6298398;22;20019;-88
2023/11/09 22:01:20;;;;;;;9.18;3.92;;;;;;;7.99;69.45;99283.56;6291258;22;20019;-89
2023/11/09 22:03:46;;;;;;;9.88;4.20;;;;;;;7.54;69.06;99217.84;6265482;22;20015;-89
2023/11/09 22:06:12;;;;;;;8.55;4.70;;;;;;;7.54;69.24;99224.09;6294363;22;20012;-87
2023/11/09 22:08:44;;;;;;;8.88;4.60;;;;;;;7.45;69.09;99200.59;6292964;22;20373;-87
2023/11/09 22:11:39;;;;;;;8.48;4.28;;;;;;;7.94;69.15;99287.16;6248636;22;20055;-87
2023/11/09 22:14:21;;;;;;;10.02;4.45;;;;;;;7.98;69.00;99282.78;6236265;23;20027;-89
2023/11/09 22:17:13;;;;;;;7.70;4.50;;;;;;;7.94;69.04;99283.63;6271516;22;20107;-87
2023/11/09 22:19:47;;;;;;;7.93;4.28;;;;;;;8.06;69.38;99289.44;6241496;22;20520;-87
2023/11/09 22:22:39;;;;;;;8.38;4.25;;;;;;;8.12;69.02;99274.66;6240915;22;20015;-90
2023/11/09 22:25:08;;;;;;;12.40;4.63;;;;;;;7.70;68.59;99204.84;6291365;22;20023;-88
2023/11/09 22:28:00;;;;;;;7.47;4.43;;;;;;;8.18;68.54;99289.78;6265896;22;20420;-87
2023/11/09 22:30:42;;;;;;;11.13;4.63;;;;;;;7.75;68.23;99213.72;6227841;23;20024;-88
2023/11/09 22:34:07;;;;;;;8.10;4.57;;;;;;;8.12;68.70;99290.97;6174527;23;20359;-91
2023/11/09 22:36:37;;;;;;;14.90;5.00;;;;;;;8.22;68.66;99293.53;6170592;23;20485;-88
2023/11/09 22:39:08;;;;;;;14.55;5.13;;;;;;;8.20;68.51;99270.44;6169673;23;20024;-87
2023/11/09 22:45:18;;;;;;;12.10;4.53;;;;;;;8.47;67.79;99286.84;6197489;23;20238;-88
2023/11/09 22:47:44;;;;;;;9.98;4.90;;;;;;;8.32;67.70;99276.22;6170652;23;20040;-88
2023/11/09 22:50:10;;;;;;;9.50;4.90;;;;;;;8.34;67.95;99275.91;6145222;23;20344;-88
2023/11/09 22:55:32;;;;;;;11.47;5.10;;;;;;;8.16;67.74;99244.91;6231765;23;20025;-91
2023/11/09 22:58:12;;;;;;;10.45;4.95;;;;;;;8.16;68.35;99264.78;6143782;23;20020;-88
2023/11/09 23:04:31;;;;;;;15.25;5.25;;;;;;;8.43;67.80;99288.56;6204241;23;20016;-90
2023/11/09 23:07:04;;;;;;;8.63;4.65;;;;;;;8.29;67.82;99252.31;6185436;22;20081;-92
2023/11/09 23:09:32;;;;;;;10.05;4.88;;;;;;;8.22;67.65;99241.78;6265737;22;20015;-89
2023/11/09 23:12:13;;;;;;;6.32;4.95;;;;;;;8.44;67.68;99282.03;6230834;22;20015;-87
2023/11/09 23:14:40;;;;;;;6.75;4.78;;;;;;;8.43;67.86;99291.28;6216265;22;20020;-87
2023/11/09 23:17:13;;;;;;;;;;;;;;;8.58;67.55;99305.78;6246814;22;20026;-92
2023/11/09 23:20:06;;;;;;;15.32;5.45;;;;;;;8.58;67.55;99322.94;6219838;22;19926;-89
2023/11/09 23:22:36;;;;;;;12.27;5.30;;;;;;;8.51;68.09;99314.34;6241449;22;20031;-90
2023/11/09 23:25:20;;;;;;;11.95;5.30;;;;;;;8.59;68.11;99329.19;6233432;23;20023;-89
2023/11/09 23:28:01;;;;;;;17.42;5.10;;;;;;;8.32;67.66;99275.41;6233591;23;20023;-89
2023/11/09 23:30:53;;;;;;;8.23;5.22;;;;;;;8.82;67.29;99332.84;6234135;23;20016;-94
2023/11/09 23:33:24;;;;;;;13.27;5.70;;;;;;;8.55;67.27;99288.09;6293863;22;20027;-89
2023/11/09 23:36:15;;;;;;;10.02;5.35;;;;;;;8.99;66.91;99335.00;6280572;22;20019;-88
2023/11/09 23:43:08;;;;;;;15.23;4.75;;;;;;;9.02;66.53;99337.94;6324083;22;20035;-93
2023/11/09 23:45:39;;;;;;;8.80;5.22;;;;;;;9.00;67.21;99342.84;6250020;22;20074;-91
2023/11/09 23:51:58;;;;;;;11.85;5.82;;;;;;;9.00;67.33;99339.31;6294509;22;20024;-90
2023/11/09 23:54:49;;;;;;;11.23;6.78;;;;;;;8.58;67.93;99281.25;6221764;23;20020;-88
2023/11/09 23:57:15;;;;;;;15.38;6.63;;;;;;;8.79;67.40;99306.19;6195649;23;20083;-93
2023/11/09 23:59:41;;;;;;;11.37;6.07;;;;;;;8.83;67.53;99301.75;6212639;22;20023;-90
